メインページ
METAR-TAF:

METAR-TAF

空港 :

Maragheh, イラン

緯度: 37-20-55N, 経度: 046-07-35E, 海抜: 1340m

現時点の気象観測

当レポートは18分前の04:00(UTC)に作成
の風 23kt、最大45ktの突風を伴う
気温 3°C
湿度 81%
気圧 1006 hPa
視程: 8000m
高度3200ftの雲はほとんどない
高度9000ftの曇り
近辺でにわか雨

METAR: OITM 220400Z 10023G45KT 8000 VCSH FEW032 OVC090 03/M00 Q1006

時間: 08:48 (04:18 UTC)


TAF: 見つかりません

4,000以上の空港の気象観測と天気予報(METAR報とTAF報)

利用可能な観測所は地図上に黄色い丸と赤い丸で示す。

丸の上にカーソルを重ねると観測所名を参照できる。

次にクリックすると気象観測と天気予報を参照できる。

マップの切り替え:黒色「×」印の緑ボタンをクリックして拡大、「-」印の緑ボタンをクリックして縮小、緑色の三角印をクリックして隣りの地図に切り替え


METAR-TAF: